Time;durP1;ratioP1;P1;durP2;ratioP2;P2;SDS_P1;SDS_P2;PMS_P1;PMS_P2;Temp;Humidity;BMP_temperature;BMP_pressure;BME280_temperature;BME280_humidity;BME280_pressure;Samples;Min_cycle;Max_cycle;Signal;HPM_P1;HPM_P2
2023/02/24 00:02:18;;;;;;;5.05;1.38;;;;;;;;;;4989151;28;20056;-65
2023/02/24 00:04:50;;;;;;;3.65;1.90;;;;;;;;;;4992520;28;20043;-66
2023/02/24 00:07:20;;;;;;;4.38;2.35;;;;;;;;;;4987737;28;20385;-66
2023/02/24 00:09:48;;;;;;;3.90;1.92;;;;;;;;;;4991831;28;20046;-65
2023/02/24 00:12:19;;;;;;;3.05;1.73;;;;;;;;;;4982671;28;20055;-65
2023/02/24 00:14:49;;;;;;;3.25;2.13;;;;;;;;;;4990650;28;20046;-67
2023/02/24 00:17:17;;;;;;;6.72;2.30;;;;;;;;;;4987949;28;20047;-66
2023/02/24 00:19:46;;;;;;;6.55;2.13;;;;;;;;;;4991264;28;20089;-65
2023/02/24 00:22:14;;;;;;;2.15;1.52;;;;;;;;;;4990343;28;20055;-66
2023/02/24 00:24:42;;;;;;;4.93;2.50;;;;;;;;;;4989939;28;20384;-68
2023/02/24 00:27:10;;;;;;;3.80;1.70;;;;;;;;;;4989025;28;20050;-66
2023/02/24 00:29:40;;;;;;;4.72;1.80;;;;;;;;;;4980979;28;20047;-65
2023/02/24 00:32:13;;;;;;;3.28;1.83;;;;;;;;;;4982267;28;20126;-66
2023/02/24 00:34:42;;;;;;;6.82;1.60;;;;;;;;;;4983699;28;20050;-66
2023/02/24 00:37:10;;;;;;;6.43;2.00;;;;;;;;;;4985659;28;20052;-65
2023/02/24 00:39:40;;;;;;;3.65;2.03;;;;;;;;;;4979334;28;20047;-65
2023/02/24 00:42:10;;;;;;;3.85;2.03;;;;;;;;;;4984987;28;20427;-66
2023/02/24 00:44:39;;;;;;;6.18;2.28;;;;;;;;;;4990303;28;20054;-65
2023/02/24 00:47:09;;;;;;;1.98;1.17;;;;;;;;;;4983496;28;20050;-66
2023/02/24 00:49:40;;;;;;;5.22;1.75;;;;;;;;;;4992977;28;20073;-65
2023/02/24 00:52:12;;;;;;;2.85;1.58;;;;;;;;;;4986923;28;20050;-65
2023/02/24 00:54:40;;;;;;;2.28;1.48;;;;;;;;;;4986171;28;20125;-65
2023/02/24 00:57:08;;;;;;;2.03;1.30;;;;;;;;;;4989124;28;20526;-65
2023/02/24 00:59:37;;;;;;;5.18;1.65;;;;;;;;;;4991153;28;20507;-66
2023/02/24 01:02:06;;;;;;;3.92;1.70;;;;;;;;;;4987131;28;20482;-66
2023/02/24 01:04:36;;;;;;;2.20;1.85;;;;;;;;;;4991930;28;20046;-65
2023/02/24 01:07:09;;;;;;;5.43;2.72;;;;;;;;;;4986256;28;20454;-66
2023/02/24 01:09:38;;;;;;;2.60;1.80;;;;;;;;;;4984672;28;20042;-65
2023/02/24 01:14:54;;;;;;;2.20;1.17;;;;;;;;;;4990638;28;20054;-66
2023/02/24 01:17:22;;;;;;;3.92;2.08;;;;;;;;;;4989092;28;20533;-65
2023/02/24 01:19:50;;;;;;;5.47;1.65;;;;;;;;;;4989014;28;20049;-65
2023/02/24 01:22:21;;;;;;;2.28;1.23;;;;;;;;;;4988382;28;20054;-65
2023/02/24 01:24:50;;;;;;;1.92;1.08;;;;;;;;;;4989759;28;20061;-68
2023/02/24 01:27:18;;;;;;;4.80;1.92;;;;;;;;;;4981050;28;20443;-65
2023/02/24 01:29:47;;;;;;;3.42;2.00;;;;;;;;;;4988019;28;20125;-65
2023/02/24 01:32:17;;;;;;;6.97;1.73;;;;;;;;;;4986702;28;20051;-66
2023/02/24 01:34:46;;;;;;;2.15;0.95;;;;;;;;;;4980774;28;20165;-68
2023/02/24 01:37:15;;;;;;;0.98;0.60;;;;;;;;;;4991791;28;20426;-65
2023/02/24 01:39:45;;;;;;;3.30;1.27;;;;;;;;;;4974203;28;20050;-65
2023/02/24 01:42:18;;;;;;;2.05;1.10;;;;;;;;;;4989644;28;20054;-66
2023/02/24 01:45:04;;;;;;;1.60;0.98;;;;;;;;;;4988823;28;20484;-65
2023/02/24 01:47:32;;;;;;;2.38;1.15;;;;;;;;;;4989826;28;20057;-66
2023/02/24 01:50:01;;;;;;;2.40;1.17;;;;;;;;;;4989491;28;20043;-65
2023/02/24 01:52:31;;;;;;;2.65;1.73;;;;;;;;;;4989342;28;20046;-65
2023/02/24 01:55:03;;;;;;;2.42;2.00;;;;;;;;;;4989946;28;20060;-65
2023/02/24 01:57:34;;;;;;;2.10;1.10;;;;;;;;;;4990530;28;20046;-65
2023/02/24 02:00:29;;;;;;;5.63;1.58;;;;;;;;;;4981488;28;20047;-65
2023/02/24 02:02:53;;;;;;;1.70;1.23;;;;;;;;;;4980210;28;20054;-68
2023/02/24 02:05:21;;;;;;;1.95;1.33;;;;;;;;;;4983043;28;20733;-65
2023/02/24 02:07:50;;;;;;;3.15;1.73;;;;;;;;;;4989477;28;20053;-67
2023/02/24 02:10:20;;;;;;;3.67;1.63;;;;;;;;;;4986837;28;20056;-64
2023/02/24 02:12:50;;;;;;;1.23;0.90;;;;;;;;;;4980900;28;20042;-66
2023/02/24 02:15:19;;;;;;;1.20;1.02;;;;;;;;;;4988609;28;20140;-65
2023/02/24 02:17:53;;;;;;;1.95;1.23;;;;;;;;;;4993465;28;20443;-65
2023/02/24 02:20:30;;;;;;;2.70;1.25;;;;;;;;;;4995768;28;20050;-64
2023/02/24 02:23:13;;;;;;;1.45;1.35;;;;;;;;;;4984448;28;20050;-64
2023/02/24 02:25:49;;;;;;;2.33;1.23;;;;;;;;;;4990105;28;20415;-65
2023/02/24 02:28:30;;;;;;;2.80;1.45;;;;;;;;;;4990928;28;20046;-65
2023/02/24 02:31:09;;;;;;;1.38;0.70;;;;;;;;;;4982871;28;20420;-65
2023/02/24 02:34:00;;;;;;;1.35;0.88;;;;;;;;;;4990250;28;20120;-65
2023/02/24 02:36:32;;;;;;;1.00;0.57;;;;;;;;;;4990067;28;20046;-65
2023/02/24 02:39:07;;;;;;;4.85;1.65;;;;;;;;;;4974819;28;20092;-65
2023/02/24 02:41:37;;;;;;;1.92;0.95;;;;;;;;;;4994531;28;20046;-66
2023/02/24 02:44:10;;;;;;;3.33;2.08;;;;;;;;;;4988865;28;20141;-65
2023/02/24 02:46:41;;;;;;;4.05;0.90;;;;;;;;;;4993928;28;20058;-65
2023/02/24 02:49:15;;;;;;;2.95;1.75;;;;;;;;;;4990972;28;20487;-65
2023/02/24 02:51:46;;;;;;;3.47;1.85;;;;;;;;;;4988383;28;20054;-65
2023/02/24 02:54:18;;;;;;;5.20;1.63;;;;;;;;;;4993518;28;20423;-68
2023/02/24 02:56:48;;;;;;;1.00;0.93;;;;;;;;;;4986952;28;20050;-65
2023/02/24 02:59:21;;;;;;;0.98;0.98;;;;;;;;;;4994922;28;20061;-69
2023/02/24 03:01:50;;;;;;;2.78;1.63;;;;;;;;;;4990066;28;20046;-66
2023/02/24 03:04:21;;;;;;;3.20;1.17;;;;;;;;;;4992815;28;20136;-65
2023/02/24 03:06:52;;;;;;;5.63;1.30;;;;;;;;;;4990371;28;20491;-65
2023/02/24 03:09:23;;;;;;;2.47;1.33;;;;;;;;;;4995645;28;20062;-65
2023/02/24 03:11:53;;;;;;;1.55;0.75;;;;;;;;;;4989778;28;20049;-65
2023/02/24 03:14:23;;;;;;;3.03;1.65;;;;;;;;;;4994648;28;20045;-64
2023/02/24 03:16:53;;;;;;;2.15;1.38;;;;;;;;;;4992456;28;20042;-65
2023/02/24 03:19:24;;;;;;;1.30;0.90;;;;;;;;;;4989465;28;20043;-65
2023/02/24 03:21:58;;;;;;;3.70;1.80;;;;;;;;;;4993482;28;20054;-65
2023/02/24 03:24:26;;;;;;;3.58;1.38;;;;;;;;;;4996704;28;20054;-64
2023/02/24 03:27:00;;;;;;;3.35;1.92;;;;;;;;;;4992661;28;20133;-64
2023/02/24 03:29:30;;;;;;;1.50;1.20;;;;;;;;;;4985645;28;20488;-66
2023/02/24 03:32:00;;;;;;;1.77;0.80;;;;;;;;;;4988299;28;20046;-64
2023/02/24 03:34:32;;;;;;;1.17;0.95;;;;;;;;;;4992871;28;20062;-64
2023/02/24 03:37:02;;;;;;;2.53;1.30;;;;;;;;;;4993045;28;20051;-64
2023/02/24 03:39:31;;;;;;;2.75;1.38;;;;;;;;;;4992731;28;20058;-64
2023/02/24 03:42:04;;;;;;;7.72;1.45;;;;;;;;;;4990754;28;20048;-64
2023/02/24 03:44:32;;;;;;;2.88;1.17;;;;;;;;;;4993319;28;20049;-64
2023/02/24 03:47:01;;;;;;;2.03;1.25;;;;;;;;;;4981897;28;20039;-64
2023/02/24 03:49:30;;;;;;;2.00;0.73;;;;;;;;;;4981077;28;20491;-65
2023/02/24 03:52:07;;;;;;;2.40;1.13;;;;;;;;;;4984964;28;20046;-65
2023/02/24 03:54:47;;;;;;;3.03;1.25;;;;;;;;;;4989722;28;20125;-64
2023/02/24 03:57:18;;;;;;;1.55;1.10;;;;;;;;;;4990857;28;20056;-64
2023/02/24 03:59:52;;;;;;;2.40;1.42;;;;;;;;;;4991631;28;20050;-65
2023/02/24 04:02:22;;;;;;;1.43;0.80;;;;;;;;;;4990367;28;20142;-66
2023/02/24 04:04:52;;;;;;;1.80;1.00;;;;;;;;;;4990831;28;20303;-65
2023/02/24 04:07:25;;;;;;;1.50;1.00;;;;;;;;;;4991234;28;20081;-65
2023/02/24 04:10:01;;;;;;;1.63;1.10;;;;;;;;;;4992007;28;20081;-65
2023/02/24 04:12:31;;;;;;;0.68;0.57;;;;;;;;;;4991228;28;20072;-64
2023/02/24 04:15:03;;;;;;;1.30;0.65;;;;;;;;;;4992861;28;20555;-65
2023/02/24 04:17:34;;;;;;;2.25;0.80;;;;;;;;;;4990300;28;20050;-64
2023/02/24 04:20:09;;;;;;;0.70;0.70;;;;;;;;;;4991646;28;20047;-65
2023/02/24 04:22:37;;;;;;;2.05;1.25;;;;;;;;;;4989613;28;20049;-65
2023/02/24 04:25:12;;;;;;;0.73;0.73;;;;;;;;;;4992997;28;20069;-64
2023/02/24 04:27:41;;;;;;;0.90;0.70;;;;;;;;;;4985680;28;20105;-64
2023/02/24 04:30:12;;;;;;;0.70;0.70;;;;;;;;;;4990902;28;20054;-65
2023/02/24 04:32:42;;;;;;;1.85;1.33;;;;;;;;;;4984389;28;20455;-65
2023/02/24 04:35:13;;;;;;;4.32;1.33;;;;;;;;;;4991533;28;20539;-64
2023/02/24 04:37:43;;;;;;;0.47;0.47;;;;;;;;;;4991005;28;20474;-64
2023/02/24 04:40:15;;;;;;;0.55;0.55;;;;;;;;;;4983614;28;20060;-64
2023/02/24 04:42:47;;;;;;;1.20;0.93;;;;;;;;;;4989590;28;20053;-65
2023/02/24 04:45:16;;;;;;;1.83;1.13;;;;;;;;;;4992187;28;20408;-64
2023/02/24 04:47:48;;;;;;;0.32;0.32;;;;;;;;;;4990231;28;20059;-66
2023/02/24 04:50:21;;;;;;;2.38;1.33;;;;;;;;;;4982074;28;20105;-64
2023/02/24 04:52:51;;;;;;;0.82;0.82;;;;;;;;;;4987440;28;20125;-69
2023/02/24 04:55:21;;;;;;;1.17;1.00;;;;;;;;;;4990950;28;20058;-64
2023/02/24 04:57:50;;;;;;;1.08;1.00;;;;;;;;;;4987988;28;20482;-65
2023/02/24 05:00:21;;;;;;;1.55;1.15;;;;;;;;;;4990691;28;20051;-65
2023/02/24 05:02:50;;;;;;;2.55;0.85;;;;;;;;;;4984025;28;20101;-64
2023/02/24 05:05:24;;;;;;;1.50;0.80;;;;;;;;;;4991313;28;20065;-65
2023/02/24 05:07:53;;;;;;;1.85;1.35;;;;;;;;;;4989140;28;20042;-70
2023/02/24 05:10:26;;;;;;;1.35;1.00;;;;;;;;;;4989725;28;20046;-64
2023/02/24 05:12:56;;;;;;;3.13;0.80;;;;;;;;;;4977505;28;20050;-65
2023/02/24 05:15:30;;;;;;;4.18;2.25;;;;;;;;;;4985923;28;20058;-65
2023/02/24 05:17:59;;;;;;;1.02;0.93;;;;;;;;;;4987113;28;20070;-64
2023/02/24 05:23:25;;;;;;;2.20;0.75;;;;;;;;;;4942065;28;20058;-68
2023/02/24 05:25:54;;;;;;;2.45;1.55;;;;;;;;;;4986924;28;20054;-66
2023/02/24 05:28:23;;;;;;;1.77;1.05;;;;;;;;;;4990262;28;20054;-69
2023/02/24 05:30:52;;;;;;;0.90;0.73;;;;;;;;;;4985219;28;20050;-65
2023/02/24 05:33:21;;;;;;;3.92;1.50;;;;;;;;;;4989802;28;20146;-69
2023/02/24 05:35:50;;;;;;;0.70;0.60;;;;;;;;;;4987579;28;20042;-65
2023/02/24 05:38:19;;;;;;;0.50;0.50;;;;;;;;;;4977400;28;20058;-65
2023/02/24 05:40:48;;;;;;;3.03;1.33;;;;;;;;;;4989595;28;20272;-64
2023/02/24 05:43:18;;;;;;;1.48;1.15;;;;;;;;;;4988818;28;20056;-64
2023/02/24 05:45:46;;;;;;;1.80;1.33;;;;;;;;;;4988675;28;20041;-67
2023/02/24 05:48:14;;;;;;;3.28;0.88;;;;;;;;;;4986624;28;20054;-65
2023/02/24 05:50:45;;;;;;;1.17;1.08;;;;;;;;;;4987884;28;20053;-64
2023/02/24 05:53:14;;;;;;;1.90;1.08;;;;;;;;;;4987884;28;20054;-66
2023/02/24 05:55:43;;;;;;;4.03;1.83;;;;;;;;;;4984529;28;20531;-67
2023/02/24 05:58:12;;;;;;;2.47;1.40;;;;;;;;;;4984357;28;20064;-64
2023/02/24 06:00:45;;;;;;;2.63;1.52;;;;;;;;;;4984052;28;20415;-65
2023/02/24 06:03:16;;;;;;;0.57;0.57;;;;;;;;;;4988828;28;20061;-64
2023/02/24 06:05:44;;;;;;;3.28;1.38;;;;;;;;;;4988852;28;20108;-65
2023/02/24 06:08:13;;;;;;;2.60;1.23;;;;;;;;;;4985679;28;20126;-68
2023/02/24 06:10:41;;;;;;;1.00;0.82;;;;;;;;;;4991759;28;20046;-66
2023/02/24 06:13:09;;;;;;;3.08;0.98;;;;;;;;;;4989516;28;20065;-65
2023/02/24 06:15:38;;;;;;;3.08;1.45;;;;;;;;;;4987034;28;20051;-64
2023/02/24 06:18:10;;;;;;;4.28;1.25;;;;;;;;;;4987340;28;20049;-64
2023/02/24 06:20:39;;;;;;;4.68;1.52;;;;;;;;;;4990396;28;20066;-64
2023/02/24 06:23:07;;;;;;;1.30;0.93;;;;;;;;;;4986392;28;20050;-64
2023/02/24 06:25:37;;;;;;;0.95;0.73;;;;;;;;;;4986291;28;20054;-64
2023/02/24 06:28:06;;;;;;;2.85;1.15;;;;;;;;;;4985122;28;20442;-67
2023/02/24 06:30:34;;;;;;;0.70;0.40;;;;;;;;;;4986652;28;20047;-65
2023/02/24 06:33:04;;;;;;;1.45;1.35;;;;;;;;;;4986448;28;20129;-64
2023/02/24 06:35:34;;;;;;;2.22;1.17;;;;;;;;;;4983843;28;20069;-64
2023/02/24 06:38:03;;;;;;;2.38;1.15;;;;;;;;;;4982165;28;20593;-66
2023/02/24 06:40:31;;;;;;;0.70;0.70;;;;;;;;;;4983852;28;20419;-64
2023/02/24 06:42:59;;;;;;;3.25;1.08;;;;;;;;;;4980462;28;20054;-64
2023/02/24 06:45:29;;;;;;;3.90;1.23;;;;;;;;;;4988136;28;20054;-68
2023/02/24 06:47:57;;;;;;;0.65;0.65;;;;;;;;;;4988204;28;20120;-68
2023/02/24 06:50:25;;;;;;;5.18;2.65;;;;;;;;;;4986014;28;20055;-68
2023/02/24 06:52:59;;;;;;;1.33;0.80;;;;;;;;;;4988700;28;20122;-69
2023/02/24 06:55:28;;;;;;;2.65;1.50;;;;;;;;;;4990070;28;20054;-68
2023/02/24 06:57:57;;;;;;;1.98;0.80;;;;;;;;;;4984170;28;20051;-70
2023/02/24 07:00:35;;;;;;;1.13;1.02;;;;;;;;;;4988173;28;20179;-68
2023/02/24 07:03:13;;;;;;;1.13;0.80;;;;;;;;;;4985275;28;20058;-68
2023/02/24 07:05:52;;;;;;;1.50;1.35;;;;;;;;;;4993243;28;20078;-68
2023/02/24 07:08:23;;;;;;;1.25;1.15;;;;;;;;;;4990339;28;20060;-68
2023/02/24 07:10:54;;;;;;;4.45;1.27;;;;;;;;;;4990833;28;20050;-68
2023/02/24 07:13:24;;;;;;;19.27;1.42;;;;;;;;;;4992108;28;20557;-68
2023/02/24 07:15:53;;;;;;;3.30;1.27;;;;;;;;;;4990426;28;20039;-70
2023/02/24 07:18:25;;;;;;;3.80;1.30;;;;;;;;;;4984656;28;20050;-68
2023/02/24 07:20:53;;;;;;;0.82;0.30;;;;;;;;;;4988210;28;20078;-68
2023/02/24 07:23:23;;;;;;;1.33;0.90;;;;;;;;;;4991214;28;20499;-69
2023/02/24 07:25:52;;;;;;;2.22;1.27;;;;;;;;;;4987918;28;20049;-68
2023/02/24 07:28:20;;;;;;;1.52;1.20;;;;;;;;;;4987406;28;20057;-70
2023/02/24 07:30:51;;;;;;;0.47;0.47;;;;;;;;;;4992618;28;20092;-68
2023/02/24 07:33:19;;;;;;;1.92;1.60;;;;;;;;;;4986906;28;20055;-69
2023/02/24 07:35:50;;;;;;;0.82;0.63;;;;;;;;;;4983918;28;20077;-68
2023/02/24 07:38:21;;;;;;;2.85;1.23;;;;;;;;;;4984147;28;20470;-68
2023/02/24 07:40:51;;;;;;;4.10;1.05;;;;;;;;;;4992328;28;20042;-68
2023/02/24 07:43:20;;;;;;;2.00;1.13;;;;;;;;;;4988815;28;20064;-68
2023/02/24 07:45:48;;;;;;;3.47;1.23;;;;;;;;;;4991726;28;20396;-69
2023/02/24 07:48:17;;;;;;;1.42;0.75;;;;;;;;;;4991143;28;20100;-68
2023/02/24 07:50:45;;;;;;;3.20;1.10;;;;;;;;;;4991998;28;20054;-68
2023/02/24 07:53:15;;;;;;;3.53;1.25;;;;;;;;;;4989014;28;20058;-69
2023/02/24 07:55:45;;;;;;;3.15;1.60;;;;;;;;;;4984689;28;20061;-69
2023/02/24 07:58:14;;;;;;;3.53;1.33;;;;;;;;;;4984614;28;20099;-68
2023/02/24 08:03:29;;;;;;;3.47;1.33;;;;;;;;;;4988396;28;20157;-68
2023/02/24 08:06:11;;;;;;;2.10;1.00;;;;;;;;;;4983297;28;20054;-69
2023/02/24 08:08:56;;;;;;;1.25;0.93;;;;;;;;;;4985231;28;20482;-69
2023/02/24 08:11:26;;;;;;;4.85;1.73;;;;;;;;;;4989082;28;20170;-69
2023/02/24 08:13:57;;;;;;;5.03;2.58;;;;;;;;;;4981568;28;20126;-69
2023/02/24 08:16:38;;;;;;;5.80;1.83;;;;;;;;;;4986165;28;20050;-69
2023/02/24 08:19:06;;;;;;;1.48;0.77;;;;;;;;;;4975346;28;20507;-69
2023/02/24 08:21:39;;;;;;;6.30;1.55;;;;;;;;;;4977942;28;20046;-69
2023/02/24 08:24:16;;;;;;;6.38;2.08;;;;;;;;;;4980377;28;20054;-69
2023/02/24 08:26:47;;;;;;;5.85;1.98;;;;;;;;;;4984425;28;20069;-69
2023/02/24 08:29:19;;;;;;;3.47;1.52;;;;;;;;;;4987989;28;20050;-69
2023/02/24 08:31:49;;;;;;;2.65;1.50;;;;;;;;;;4981239;28;20188;-68
2023/02/24 08:34:17;;;;;;;4.13;2.40;;;;;;;;;;4981770;28;20057;-69
2023/02/24 08:36:54;;;;;;;5.25;2.10;;;;;;;;;;4981831;28;20046;-70
2023/02/24 08:39:23;;;;;;;1.75;1.33;;;;;;;;;;4981599;28;20491;-69
2023/02/24 08:41:53;;;;;;;5.53;2.00;;;;;;;;;;4981457;28;20059;-69
2023/02/24 08:44:25;;;;;;;11.52;2.55;;;;;;;;;;4987641;28;20061;-69
2023/02/24 08:46:54;;;;;;;6.75;2.55;;;;;;;;;;4983051;28;20054;-69
2023/02/24 08:49:24;;;;;;;2.63;1.70;;;;;;;;;;4980707;28;20045;-69
2023/02/24 08:51:53;;;;;;;5.70;1.92;;;;;;;;;;4982871;28;20050;-69
2023/02/24 08:54:25;;;;;;;2.80;1.40;;;;;;;;;;4980878;28;20408;-70
2023/02/24 08:56:55;;;;;;;10.77;2.55;;;;;;;;;;4978242;28;20101;-69
2023/02/24 08:59:37;;;;;;;9.60;2.28;;;;;;;;;;4985949;28;20058;-69
2023/02/24 09:04:54;;;;;;;3.35;1.60;;;;;;;;;;4976419;28;20419;-66
2023/02/24 09:07:24;;;;;;;2.50;2.03;;;;;;;;;;4984835;28;20042;-66
2023/02/24 09:09:55;;;;;;;3.83;2.08;;;;;;;;;;4979718;28;20055;-67
2023/02/24 09:12:25;;;;;;;4.63;2.17;;;;;;;;;;4977476;28;20051;-66
2023/02/24 09:14:55;;;;;;;5.20;2.28;;;;;;;;;;4980443;28;20538;-67
2023/02/24 09:17:48;;;;;;;4.30;1.77;;;;;;;;;;4980013;28;20133;-67
2023/02/24 09:23:19;;;;;;;23.33;2.17;;;;;;;;;;4981716;28;20055;-67
2023/02/24 09:25:53;;;;;;;28.92;2.83;;;;;;;;;;4980180;28;20113;-66
2023/02/24 09:28:23;;;;;;;5.80;1.45;;;;;;;;;;4977133;28;20356;-67
2023/02/24 09:30:54;;;;;;;4.53;2.15;;;;;;;;;;4982401;28;20059;-67
2023/02/24 09:33:24;;;;;;;3.58;1.38;;;;;;;;;;4986301;28;20447;-67
2023/02/24 09:36:01;;;;;;;2.67;1.52;;;;;;;;;;4984634;28;20200;-67
2023/02/24 09:41:44;;;;;;;7.35;1.75;;;;;;;;;;4923098;29;20822;-68
2023/02/24 09:44:17;;;;;;;8.15;2.38;;;;;;;;;;4974539;28;20168;-69
2023/02/24 09:46:52;;;;;;;7.32;2.90;;;;;;;;;;4982401;28;20082;-69
2023/02/24 09:49:23;;;;;;;3.95;1.95;;;;;;;;;;4981181;28;20101;-69
2023/02/24 09:51:59;;;;;;;5.38;2.28;;;;;;;;;;4984601;28;20081;-70
2023/02/24 09:54:30;;;;;;;3.92;2.10;;;;;;;;;;4986479;28;20047;-70
2023/02/24 09:57:08;;;;;;;6.43;1.65;;;;;;;;;;4981857;28;20042;-70
2023/02/24 09:59:53;;;;;;;16.83;2.50;;;;;;;;;;4989066;28;20492;-70
2023/02/24 10:02:29;;;;;;;6.85;1.67;;;;;;;;;;4988101;28;20077;-68
2023/02/24 10:05:05;;;;;;;4.30;2.45;;;;;;;;;;4984897;28;20043;-67
2023/02/24 10:07:38;;;;;;;5.30;1.65;;;;;;;;;;4977191;28;20047;-70
2023/02/24 10:10:26;;;;;;;11.13;2.03;;;;;;;;;;4988911;28;20492;-70
2023/02/24 10:12:58;;;;;;;7.90;3.15;;;;;;;;;;4983831;28;20066;-71
2023/02/24 10:15:49;;;;;;;9.48;3.15;;;;;;;;;;4987592;28;20055;-69
2023/02/24 10:18:29;;;;;;;8.43;2.42;;;;;;;;;;4980274;28;20065;-68
2023/02/24 10:21:01;;;;;;;5.25;2.20;;;;;;;;;;4981926;28;20467;-67
2023/02/24 10:23:34;;;;;;;3.75;1.60;;;;;;;;;;4990237;28;20458;-67
2023/02/24 10:26:04;;;;;;;8.15;2.03;;;;;;;;;;4982297;28;20078;-68
2023/02/24 10:28:38;;;;;;;4.35;2.63;;;;;;;;;;4981620;28;20050;-67
2023/02/24 10:31:23;;;;;;;6.05;2.63;;;;;;;;;;4980977;28;20046;-68
2023/02/24 10:33:56;;;;;;;4.40;3.15;;;;;;;;;;4985822;28;20051;-68
2023/02/24 10:36:33;;;;;;;14.20;3.40;;;;;;;;;;4987026;28;20054;-68
2023/02/24 10:39:07;;;;;;;6.88;3.10;;;;;;;;;;4971101;28;20046;-68
2023/02/24 10:41:44;;;;;;;5.32;1.75;;;;;;;;;;4995629;28;20151;-68
2023/02/24 10:44:15;;;;;;;6.28;2.08;;;;;;;;;;4989260;28;20050;-68
2023/02/24 10:46:43;;;;;;;11.02;2.38;;;;;;;;;;4988523;28;20403;-68
2023/02/24 10:49:15;;;;;;;8.77;2.75;;;;;;;;;;4993904;28;20050;-68
2023/02/24 10:51:49;;;;;;;5.63;2.05;;;;;;;;;;4989505;28;20435;-68
2023/02/24 10:55:03;;;;;;;12.05;2.13;;;;;;;;;;4993497;28;20057;-69
2023/02/24 10:57:36;;;;;;;4.53;1.88;;;;;;;;;;4992915;28;20042;-68
2023/02/24 11:00:31;;;;;;;4.35;1.45;;;;;;;;;;4989216;28;20053;-68
2023/02/24 11:03:09;;;;;;;7.13;2.60;;;;;;;;;;5001149;28;20050;-68
2023/02/24 11:08:53;;;;;;;8.88;2.53;;;;;;;;;;4980856;28;20476;-68
2023/02/24 11:11:28;;;;;;;5.53;1.70;;;;;;;;;;4983119;28;20051;-69
2023/02/24 11:19:32;;;;;;;5.30;2.20;;;;;;;;;;4988095;28;20142;-68
2023/02/24 11:22:02;;;;;;;4.78;1.70;;;;;;;;;;5001731;28;20046;-68
2023/02/24 11:24:31;;;;;;;6.28;2.88;;;;;;;;;;4987000;28;20555;-69
2023/02/24 11:26:59;;;;;;;6.07;2.13;;;;;;;;;;4987376;28;20046;-68
2023/02/24 11:29:43;;;;;;;4.82;1.40;;;;;;;;;;4987687;28;20138;-69
2023/02/24 11:32:22;;;;;;;5.88;2.72;;;;;;;;;;4984923;28;20082;-68
2023/02/24 11:34:54;;;;;;;7.93;2.22;;;;;;;;;;4984685;28;20106;-68
2023/02/24 11:37:33;;;;;;;10.25;2.25;;;;;;;;;;4986197;28;20157;-69
2023/02/24 11:40:03;;;;;;;8.00;2.72;;;;;;;;;;4989415;28;20050;-69
2023/02/24 11:42:33;;;;;;;6.75;2.35;;;;;;;;;;4992277;28;20101;-68
2023/02/24 11:45:05;;;;;;;5.97;2.60;;;;;;;;;;4987318;28;20126;-67
2023/02/24 11:47:36;;;;;;;3.78;2.00;;;;;;;;;;4989994;28;20125;-67
2023/02/24 11:50:24;;;;;;;6.05;2.05;;;;;;;;;;4981607;28;20049;-68
2023/02/24 11:52:56;;;;;;;4.25;2.03;;;;;;;;;;4992189;28;20129;-68
2023/02/24 11:55:28;;;;;;;3.20;2.20;;;;;;;;;;4981967;28;20093;-68
2023/02/24 11:58:00;;;;;;;13.15;2.17;;;;;;;;;;4986319;28;20506;-68
2023/02/24 12:00:31;;;;;;;6.60;1.83;;;;;;;;;;4986533;28;20458;-69
2023/02/24 12:03:02;;;;;;;7.78;2.50;;;;;;;;;;4991630;28;20109;-68
2023/02/24 12:05:35;;;;;;;11.02;2.47;;;;;;;;;;4983079;28;20130;-68
2023/02/24 12:08:10;;;;;;;6.13;1.88;;;;;;;;;;4978107;28;20053;-69
2023/02/24 12:10:45;;;;;;;6.95;2.40;;;;;;;;;;4986468;28;20049;-68
2023/02/24 12:13:18;;;;;;;3.20;1.60;;;;;;;;;;4988484;28;20062;-69
2023/02/24 12:15:51;;;;;;;5.95;2.10;;;;;;;;;;4987019;28;20058;-68
2023/02/24 12:18:24;;;;;;;7.60;2.80;;;;;;;;;;4989523;28;20498;-68
2023/02/24 12:20:55;;;;;;;10.70;1.97;;;;;;;;;;4985387;28;20097;-68
2023/02/24 12:23:29;;;;;;;5.90;2.13;;;;;;;;;;4995018;28;20408;-69
2023/02/24 12:26:05;;;;;;;4.85;2.28;;;;;;;;;;4990857;28;20089;-68
2023/02/24 12:28:39;;;;;;;10.55;2.75;;;;;;;;;;4983096;28;21309;-68
2023/02/24 12:31:16;;;;;;;9.30;2.10;;;;;;;;;;4988303;28;20050;-68
2023/02/24 12:33:48;;;;;;;6.00;2.17;;;;;;;;;;4993238;28;20431;-69
2023/02/24 12:36:21;;;;;;;5.93;1.77;;;;;;;;;;4988696;28;20053;-69
2023/02/24 12:38:57;;;;;;;6.72;2.50;;;;;;;;;;4987058;28;20133;-68
2023/02/24 12:41:32;;;;;;;4.60;1.95;;;;;;;;;;4985577;28;20047;-68
2023/02/24 12:44:06;;;;;;;6.28;2.20;;;;;;;;;;4997128;28;20050;-68
2023/02/24 12:46:36;;;;;;;5.80;2.70;;;;;;;;;;4985531;28;20042;-68
2023/02/24 12:49:33;;;;;;;6.13;2.00;;;;;;;;;;4988864;28;20051;-68
2023/02/24 12:52:08;;;;;;;5.32;2.40;;;;;;;;;;4983717;28;20511;-67
2023/02/24 12:54:40;;;;;;;4.15;1.50;;;;;;;;;;4986673;28;20073;-69
2023/02/24 12:57:12;;;;;;;6.15;2.47;;;;;;;;;;4988426;28;20056;-68
2023/02/24 12:59:42;;;;;;;7.55;2.67;;;;;;;;;;4980798;28;20042;-71
2023/02/24 13:02:14;;;;;;;8.77;2.45;;;;;;;;;;4987664;28;20064;-68
2023/02/24 13:04:51;;;;;;;4.28;1.70;;;;;;;;;;4990246;28;20046;-68
2023/02/24 13:07:27;;;;;;;7.03;1.70;;;;;;;;;;4983124;28;20054;-68
2023/02/24 13:10:05;;;;;;;4.40;1.55;;;;;;;;;;4988350;28;20046;-68
2023/02/24 13:12:36;;;;;;;8.88;2.50;;;;;;;;;;4984963;28;20057;-68
2023/02/24 13:15:05;;;;;;;4.28;1.63;;;;;;;;;;4980663;28;20452;-68
2023/02/24 13:17:33;;;;;;;6.25;1.48;;;;;;;;;;4987395;28;20054;-69
2023/02/24 13:20:10;;;;;;;5.72;2.00;;;;;;;;;;4984897;28;20054;-68
2023/02/24 13:22:42;;;;;;;5.82;2.05;;;;;;;;;;4983681;28;20057;-68
2023/02/24 13:25:20;;;;;;;9.18;2.72;;;;;;;;;;4978659;28;20492;-68
2023/02/24 13:27:55;;;;;;;9.27;2.05;;;;;;;;;;4983704;28;20046;-68
2023/02/24 13:30:26;;;;;;;8.02;2.60;;;;;;;;;;4983101;28;20741;-68
2023/02/24 13:33:02;;;;;;;4.85;1.98;;;;;;;;;;4979733;28;20492;-68
2023/02/24 13:35:32;;;;;;;4.18;1.98;;;;;;;;;;4983098;28;20058;-69
2023/02/24 13:38:21;;;;;;;4.80;2.40;;;;;;;;;;4984427;28;20138;-68
2023/02/24 13:40:51;;;;;;;3.63;2.80;;;;;;;;;;4984133;28;20080;-68
2023/02/24 13:43:25;;;;;;;6.07;1.65;;;;;;;;;;4983131;28;20121;-68
2023/02/24 13:45:58;;;;;;;6.93;3.13;;;;;;;;;;4983979;28;20459;-68
2023/02/24 13:48:43;;;;;;;4.22;1.88;;;;;;;;;;4982759;28;20045;-67
2023/02/24 13:51:20;;;;;;;9.02;2.88;;;;;;;;;;4986194;28;20054;-68
2023/02/24 13:53:57;;;;;;;7.45;2.53;;;;;;;;;;4979139;28;20054;-68
2023/02/24 13:56:35;;;;;;;3.00;2.13;;;;;;;;;;4979824;28;20050;-68
2023/02/24 13:59:17;;;;;;;9.27;2.80;;;;;;;;;;4983441;28;20050;-68
2023/02/24 14:01:48;;;;;;;10.68;2.95;;;;;;;;;;4984043;28;20065;-68
2023/02/24 14:04:18;;;;;;;3.80;1.83;;;;;;;;;;4982087;28;20073;-68
2023/02/24 14:06:49;;;;;;;7.47;2.33;;;;;;;;;;4982200;28;20074;-68
2023/02/24 14:09:21;;;;;;;6.85;2.25;;;;;;;;;;4980157;28;20093;-69
2023/02/24 14:11:55;;;;;;;7.28;1.83;;;;;;;;;;4985312;28;20050;-69
2023/02/24 14:14:24;;;;;;;6.85;2.40;;;;;;;;;;4983721;28;20519;-69
2023/02/24 14:16:53;;;;;;;9.20;2.70;;;;;;;;;;4986695;28;20487;-68
2023/02/24 14:19:22;;;;;;;4.50;1.52;;;;;;;;;;4984467;28;20047;-69
2023/02/24 14:21:51;;;;;;;8.73;2.58;;;;;;;;;;4982546;28;20053;-68
2023/02/24 14:24:21;;;;;;;4.88;2.20;;;;;;;;;;4985083;28;20054;-68
2023/02/24 14:26:51;;;;;;;4.43;2.85;;;;;;;;;;4980097;28;20049;-68
2023/02/24 14:29:22;;;;;;;6.93;2.67;;;;;;;;;;4986043;28;20480;-69
2023/02/24 14:31:52;;;;;;;8.18;2.05;;;;;;;;;;4983581;28;20046;-69
2023/02/24 14:34:23;;;;;;;7.85;2.97;;;;;;;;;;4990221;28;20081;-69
2023/02/24 14:36:52;;;;;;;7.35;2.38;;;;;;;;;;4978913;28;20071;-68
2023/02/24 14:39:23;;;;;;;8.57;2.20;;;;;;;;;;4983107;28;20081;-69
2023/02/24 14:41:53;;;;;;;7.03;4.28;;;;;;;;;;4986036;28;20042;-69
2023/02/24 14:44:25;;;;;;;4.75;2.83;;;;;;;;;;4988707;28;20053;-69
2023/02/24 14:46:55;;;;;;;5.90;2.08;;;;;;;;;;4983847;28;20047;-69
2023/02/24 14:49:25;;;;;;;7.70;3.63;;;;;;;;;;4983150;28;20050;-69
2023/02/24 14:51:56;;;;;;;9.40;2.28;;;;;;;;;;4981424;28;20058;-69
2023/02/24 14:54:39;;;;;;;4.55;2.10;;;;;;;;;;4984265;28;20046;-69
2023/02/24 14:57:12;;;;;;;7.90;2.42;;;;;;;;;;4985807;28;20484;-69
2023/02/24 14:59:43;;;;;;;6.07;2.22;;;;;;;;;;4980592;28;20046;-69
2023/02/24 15:02:15;;;;;;;5.93;1.70;;;;;;;;;;4986641;28;20070;-69
2023/02/24 15:04:47;;;;;;;12.05;3.03;;;;;;;;;;4984748;28;20170;-68
2023/02/24 15:07:17;;;;;;;11.90;2.70;;;;;;;;;;4979061;28;20074;-69
2023/02/24 15:09:47;;;;;;;3.45;2.08;;;;;;;;;;4984628;28;20069;-69
2023/02/24 15:12:21;;;;;;;7.47;3.22;;;;;;;;;;4986964;28;20503;-69
2023/02/24 15:14:52;;;;;;;5.20;1.73;;;;;;;;;;4982204;28;20051;-70
2023/02/24 15:17:21;;;;;;;6.82;2.33;;;;;;;;;;4983593;28;20046;-68
2023/02/24 15:19:53;;;;;;;8.20;2.97;;;;;;;;;;4983562;28;20059;-69
2023/02/24 15:22:23;;;;;;;12.25;3.28;;;;;;;;;;4983442;28;20046;-70
2023/02/24 15:24:52;;;;;;;5.68;1.75;;;;;;;;;;4983092;28;20053;-69
2023/02/24 15:27:23;;;;;;;2.45;1.23;;;;;;;;;;4988906;28;20053;-69
2023/02/24 15:30:00;;;;;;;4.53;2.22;;;;;;;;;;4992328;28;20554;-70
2023/02/24 15:32:30;;;;;;;4.28;1.70;;;;;;;;;;4990826;28;20547;-69
2023/02/24 15:34:59;;;;;;;10.90;1.83;;;;;;;;;;4988136;28;20050;-69
2023/02/24 15:37:28;;;;;;;7.60;2.35;;;;;;;;;;4986996;28;20551;-69
2023/02/24 15:40:03;;;;;;;4.40;1.80;;;;;;;;;;4987488;28;20544;-68